Time;durP1;ratioP1;P1;durP2;ratioP2;P2;SDS_P1;SDS_P2;PMS_P1;PMS_P2;Temp;Humidity;BMP_temperature;BMP_pressure;BME280_temperature;BME280_humidity;BME280_pressure;Samples;Min_cycle;Max_cycle;Signal;HPM_P1;HPM_P2
2021/12/07 00:01:47;;;;;;;16.33;4.03;;;4.80;99.90;;;;;;5092708;28;20028;-73
2021/12/07 00:04:13;;;;;;;19.67;3.30;;;5.00;99.90;;;;;;5093162;28;20028;-75
2021/12/07 00:06:40;;;;;;;15.15;2.80;;;5.30;99.90;;;;;;5089800;28;20017;-73
2021/12/07 00:09:09;;;;;;;17.90;2.55;;;5.40;99.90;;;;;;5092403;28;20365;-74
2021/12/07 00:11:35;;;;;;;19.05;3.67;;;5.60;99.90;;;;;;5090324;28;20039;-74
2021/12/07 00:14:12;;;;;;;18.98;2.25;;;5.70;99.90;;;;;;5092717;28;20031;-74
2021/12/07 00:16:47;;;;;;;13.35;2.70;;;5.90;99.90;;;;;;5090990;28;20031;-74
2021/12/07 00:19:17;;;;;;;20.17;3.13;;;6.00;99.90;;;;;;5092095;28;20440;-73
2021/12/07 00:21:44;;;;;;;17.17;3.40;;;6.20;99.90;;;;;;5074824;28;20020;-74
2021/12/07 00:24:12;;;;;;;17.27;3.00;;;6.30;99.90;;;;;;5091034;28;20026;-74
2021/12/07 00:26:39;;;;;;;14.18;2.40;;;6.30;99.90;;;;;;5092083;28;20026;-74
2021/12/07 00:29:05;;;;;;;10.30;4.28;;;6.40;99.90;;;;;;5091391;28;20016;-73
2021/12/07 00:31:39;;;;;;;20.90;2.85;;;6.40;99.90;;;;;;5090983;28;20159;-72
2021/12/07 00:34:15;;;;;;;18.33;3.13;;;6.50;99.90;;;;;;5090282;28;20023;-74
2021/12/07 00:36:44;;;;;;;12.57;3.05;;;6.60;99.90;;;;;;5089440;28;20017;-74
2021/12/07 00:39:17;;;;;;;12.43;2.38;;;6.60;99.90;;;;;;5092060;28;20027;-75
2021/12/07 00:41:43;;;;;;;19.23;3.42;;;6.60;99.90;;;;;;5089499;28;20020;-74
2021/12/07 00:44:09;;;;;;;13.20;2.17;;;6.60;99.90;;;;;;5091996;28;20035;-74
2021/12/07 00:46:35;;;;;;;25.13;5.00;;;6.70;99.90;;;;;;5091504;28;20580;-73
2021/12/07 00:49:01;;;;;;;11.38;2.42;;;6.70;99.90;;;;;;5089254;28;20034;-74
2021/12/07 00:51:26;;;;;;;10.88;2.40;;;6.80;99.90;;;;;;5091711;28;20107;-72
2021/12/07 00:53:52;;;;;;;15.00;2.72;;;6.80;99.90;;;;;;5093270;28;20089;-74
2021/12/07 00:56:19;;;;;;;14.65;2.30;;;6.80;99.90;;;;;;5093283;28;20476;-74
2021/12/07 00:58:45;;;;;;;15.32;2.17;;;6.80;99.90;;;;;;5093249;28;20064;-72
2021/12/07 01:01:14;;;;;;;8.63;2.05;;;6.80;99.90;;;;;;5093167;28;20195;-73
2021/12/07 01:03:41;;;;;;;11.27;1.90;;;6.80;99.90;;;;;;5092669;28;20044;-72
2021/12/07 01:25:28;;;;;;;9.07;2.30;;;6.70;99.90;;;;;;5096773;28;20486;-73
2021/12/07 01:27:58;;;;;;;16.38;3.15;;;6.80;99.90;;;;;;5092997;28;20119;-75
2021/12/07 01:30:38;;;;;;;16.60;2.05;;;6.70;99.90;;;;;;5076881;28;20016;-75
2021/12/07 01:39:35;;;;;;;9.43;1.90;;;6.80;99.90;;;;;;5089282;28;20083;-74
2021/12/07 01:44:25;;;;;;;9.30;2.03;;;6.80;99.90;;;;;;5092954;28;20024;-73
2021/12/07 02:00:15;;;;;;;7.28;1.10;;;6.50;99.90;;;;;;5091736;28;20495;-72
2021/12/07 02:02:41;;;;;;;7.55;1.35;;;6.40;99.90;;;;;;5094232;28;20101;-71
2021/12/07 02:05:07;;;;;;;7.35;1.55;;;6.30;99.90;;;;;;5096500;28;20028;-72
2021/12/07 02:07:33;;;;;;;7.90;1.88;;;6.30;99.90;;;;;;5095097;28;20024;-71
2021/12/07 02:10:05;;;;;;;13.43;1.67;;;6.30;99.90;;;;;;5095215;28;20054;-73
2021/12/07 02:12:41;;;;;;;13.40;2.45;;;6.30;99.90;;;;;;5096245;28;20020;-74
2021/12/07 02:15:08;;;;;;;16.88;2.20;;;6.40;99.90;;;;;;5105102;28;20471;-72
2021/12/07 02:17:34;;;;;;;11.38;2.00;;;6.30;99.90;;;;;;5096123;28;20130;-73
2021/12/07 02:20:00;;;;;;;13.25;2.78;;;6.40;99.90;;;;;;5096338;28;20107;-71
2021/12/07 02:22:25;;;;;;;8.98;1.63;;;6.40;99.90;;;;;;5096175;28;20099;-73
2021/12/07 02:24:51;;;;;;;9.85;2.05;;;6.40;99.90;;;;;;5096257;28;20024;-72
2021/12/07 02:27:16;;;;;;;10.13;1.95;;;6.40;99.90;;;;;;5095126;28;20028;-72
2021/12/07 02:29:42;;;;;;;7.28;1.60;;;6.30;99.90;;;;;;5099937;28;20387;-72
2021/12/07 02:32:08;;;;;;;13.82;2.00;;;6.30;99.90;;;;;;5095798;28;20384;-73
2021/12/07 02:34:36;;;;;;;9.27;2.10;;;6.30;99.90;;;;;;5096161;28;20016;-72
2021/12/07 02:37:02;;;;;;;14.88;2.03;;;6.40;99.90;;;;;;5095585;28;20039;-72
2021/12/07 02:39:34;;;;;;;11.20;2.17;;;6.30;99.90;;;;;;5096044;28;20028;-72
2021/12/07 02:42:01;;;;;;;;;;;6.30;99.90;;;;;;5096001;28;20028;-71
2021/12/07 02:44:27;;;;;;;11.90;2.08;;;6.40;99.90;;;;;;5095012;28;19951;-73
2021/12/07 02:46:53;;;;;;;14.38;2.35;;;6.30;99.90;;;;;;5099337;28;20192;-73
2021/12/07 02:49:20;;;;;;;13.63;2.13;;;6.40;99.90;;;;;;5095750;28;20312;-72
2021/12/07 02:51:47;;;;;;;7.97;2.53;;;6.40;99.90;;;;;;5095831;28;20032;-75
2021/12/07 02:54:12;;;;;;;13.55;1.98;;;6.40;99.90;;;;;;5095005;28;20452;-74
2021/12/07 02:56:38;;;;;;;14.50;2.10;;;6.50;99.90;;;;;;5095569;28;20099;-74
2021/12/07 02:59:04;;;;;;;15.50;3.00;;;6.50;99.90;;;;;;5093633;28;20035;-74
2021/12/07 03:01:35;;;;;;;11.75;2.30;;;6.50;99.90;;;;;;5094695;28;20460;-72
2021/12/07 03:06:41;;;;;;;12.00;2.13;;;6.60;99.90;;;;;;5095470;28;20050;-74
2021/12/07 03:28:17;;;;;;;15.95;2.30;;;6.70;99.90;;;;;;5094846;28;20059;-75
2021/12/07 03:30:43;;;;;;;15.70;3.08;;;6.70;99.90;;;;;;5094964;28;20071;-73
2021/12/07 03:33:08;;;;;;;19.70;4.03;;;6.70;99.90;;;;;;5094124;28;20024;-74
2021/12/07 03:35:35;;;;;;;11.70;2.28;;;6.80;99.90;;;;;;5091958;28;20036;-74
2021/12/07 03:38:07;;;;;;;10.27;1.83;;;6.70;99.90;;;;;;5090322;28;20028;-73
2021/12/07 03:40:33;;;;;;;9.95;1.88;;;6.80;99.90;;;;;;5094214;28;20444;-75
2021/12/07 03:43:00;;;;;;;14.93;2.90;;;6.80;99.90;;;;;;5094670;28;20384;-73
2021/12/07 03:45:26;;;;;;;17.58;3.35;;;6.70;99.90;;;;;;5094505;28;20064;-72
2021/12/07 03:47:53;;;;;;;13.93;2.63;;;6.70;99.90;;;;;;5094832;28;20067;-74
2021/12/07 03:50:21;;;;;;;12.48;2.22;;;6.70;99.90;;;;;;5094020;28;20020;-73
2021/12/07 03:52:48;;;;;;;21.77;3.60;;;6.70;99.90;;;;;;5093895;28;20020;-73
2021/12/07 03:55:14;;;;;;;14.95;2.45;;;6.80;99.90;;;;;;5094335;28;20111;-75
2021/12/07 03:57:39;;;;;;;19.55;2.78;;;6.80;99.90;;;;;;5094527;28;20119;-72
2021/12/07 04:00:09;;;;;;;11.85;2.45;;;6.90;99.90;;;;;;5094243;28;20035;-73
2021/12/07 04:02:39;;;;;;;14.38;3.35;;;6.90;99.90;;;;;;5094003;28;20083;-73
2021/12/07 04:05:13;;;;;;;13.30;2.22;;;6.90;99.90;;;;;;5093623;28;20012;-71
2021/12/07 04:07:39;;;;;;;13.30;2.20;;;6.90;99.90;;;;;;5094237;28;20028;-75
2021/12/07 04:10:06;;;;;;;5.55;1.48;;;6.90;99.90;;;;;;5085884;28;20369;-74
2021/12/07 04:12:35;;;;;;;7.03;1.98;;;6.90;99.90;;;;;;5094674;28;20422;-72
2021/12/07 04:15:06;;;;;;;3.15;0.98;;;7.00;99.90;;;;;;5093736;28;20089;-71
2021/12/07 04:17:32;;;;;;;9.32;1.23;;;6.90;99.90;;;;;;5097383;28;20048;-73
2021/12/07 04:19:58;;;;;;;10.93;1.77;;;6.80;99.90;;;;;;5101684;28;20028;-72
2021/12/07 04:22:24;;;;;;;8.13;1.73;;;6.80;99.90;;;;;;5094288;28;20032;-74
2021/12/07 04:24:49;;;;;;;8.18;1.65;;;6.80;99.90;;;;;;5093844;28;20067;-72
2021/12/07 04:27:15;;;;;;;5.65;1.55;;;6.80;99.90;;;;;;5092999;28;20032;-72
2021/12/07 04:29:41;;;;;;;10.98;1.65;;;6.80;99.90;;;;;;5093819;28;20516;-72
2021/12/07 04:32:07;;;;;;;6.65;1.75;;;6.70;99.90;;;;;;5092337;28;20035;-74
2021/12/07 04:34:32;;;;;;;9.38;2.13;;;6.80;99.90;;;;;;5093836;28;20471;-71
2021/12/07 04:36:58;;;;;;;11.68;1.75;;;6.80;99.90;;;;;;5092615;28;20082;-71
2021/12/07 04:39:24;;;;;;;6.32;2.03;;;6.80;99.90;;;;;;5094322;28;20024;-71
2021/12/07 04:41:53;;;;;;;13.30;1.60;;;6.80;99.90;;;;;;5093846;28;20031;-72
2021/12/07 04:44:22;;;;;;;12.50;2.10;;;6.80;99.90;;;;;;5094022;28;20031;-72
2021/12/07 04:47:03;;;;;;;9.32;1.95;;;6.80;99.90;;;;;;5092235;28;20137;-74
2021/12/07 04:57:45;;;;;;;10.73;1.90;;;6.70;99.90;;;;;;5093677;28;20081;-72
2021/12/07 05:00:24;;;;;;;6.18;1.38;;;6.70;99.90;;;;;;5093812;28;20026;-73
2021/12/07 05:02:58;;;;;;;9.13;1.80;;;6.60;99.90;;;;;;5093417;28;20105;-73
2021/12/07 05:05:29;;;;;;;7.25;1.50;;;6.60;99.90;;;;;;5093404;28;20016;-72
2021/12/07 05:07:58;;;;;;;5.00;1.13;;;6.50;99.90;;;;;;5092457;28;20414;-73
2021/12/07 05:18:34;;;;;;;7.53;1.65;;;6.30;99.90;;;;;;5063945;28;20076;-74
2021/12/07 05:39:58;;;;;;;10.15;2.03;;;6.00;99.90;;;;;;5097788;28;20043;-75
2021/12/07 05:42:24;;;;;;;14.98;2.38;;;6.10;99.90;;;;;;5097248;28;20028;-73
2021/12/07 05:44:52;;;;;;;12.25;1.95;;;6.10;99.90;;;;;;5097270;28;20154;-73
2021/12/07 05:47:18;;;;;;;7.97;1.73;;;6.10;99.90;;;;;;5097247;28;20084;-73
2021/12/07 05:49:44;;;;;;;6.60;1.85;;;6.10;99.90;;;;;;5097340;28;20099;-74
2021/12/07 05:52:10;;;;;;;15.50;3.13;;;6.20;99.90;;;;;;5097707;28;20028;-73
2021/12/07 05:54:35;;;;;;;10.95;2.05;;;6.20;99.90;;;;;;5095961;28;20016;-73
2021/12/07 05:57:01;;;;;;;10.68;1.80;;;6.30;99.90;;;;;;5097127;28;20073;-73
2021/12/07 05:59:26;;;;;;;9.35;2.10;;;6.30;99.90;;;;;;5079399;28;20036;-73
2021/12/07 06:01:52;;;;;;;10.68;2.05;;;6.40;99.90;;;;;;5074686;28;20076;-73
2021/12/07 06:04:18;;;;;;;12.55;1.85;;;6.40;99.90;;;;;;5076560;28;20017;-74
2021/12/07 06:06:43;;;;;;;12.15;2.53;;;6.50;99.90;;;;;;5075450;28;20021;-75
2021/12/07 06:09:09;;;;;;;15.15;2.03;;;6.50;99.90;;;;;;5076415;28;20357;-73
2021/12/07 06:11:34;;;;;;;8.00;1.52;;;6.60;99.90;;;;;;5076662;28;20032;-74
2021/12/07 06:14:00;;;;;;;5.22;1.55;;;6.50;99.90;;;;;;5076623;28;20024;-73
2021/12/07 06:16:30;;;;;;;13.65;2.05;;;6.50;99.90;;;;;;5076034;28;20025;-73
2021/12/07 06:18:56;;;;;;;13.98;2.00;;;6.50;99.90;;;;;;5076128;28;20064;-74
2021/12/07 06:21:22;;;;;;;10.02;1.60;;;6.50;99.90;;;;;;5076588;28;20033;-74
2021/12/07 06:23:47;;;;;;;9.60;1.67;;;6.50;99.90;;;;;;5076516;28;20039;-74
2021/12/07 06:26:13;;;;;;;13.13;2.15;;;6.40;99.90;;;;;;5076112;28;20103;-74
2021/12/07 06:28:39;;;;;;;9.77;1.95;;;6.30;99.90;;;;;;5091912;28;20024;-73
2021/12/07 06:31:04;;;;;;;10.27;2.05;;;6.30;99.90;;;;;;5076129;28;20107;-74
2021/12/07 06:33:30;;;;;;;12.25;2.00;;;6.30;99.90;;;;;;5076036;28;20032;-73
2021/12/07 06:35:59;;;;;;;14.10;2.63;;;6.30;99.90;;;;;;5076316;28;20379;-73
2021/12/07 06:38:27;;;;;;;8.60;2.63;;;6.20;99.90;;;;;;5075819;28;20036;-75
2021/12/07 06:40:54;;;;;;;11.55;2.53;;;6.20;99.90;;;;;;5076190;28;20034;-75
2021/12/07 06:43:21;;;;;;;13.38;2.67;;;6.20;99.90;;;;;;5075878;28;20020;-74
2021/12/07 06:45:46;;;;;;;13.07;2.53;;;6.10;99.90;;;;;;5080043;28;20070;-74
2021/12/07 06:48:12;;;;;;;9.95;2.10;;;6.10;99.90;;;;;;5093525;28;20093;-74
2021/12/07 06:50:38;;;;;;;10.05;2.17;;;6.10;99.90;;;;;;5093338;28;20020;-74
2021/12/07 06:53:03;;;;;;;14.02;1.95;;;6.00;99.90;;;;;;5094239;28;20479;-74
2021/12/07 06:55:29;;;;;;;6.95;1.85;;;6.00;99.90;;;;;;5094216;28;20099;-74
2021/12/07 06:57:55;;;;;;;8.40;1.98;;;6.00;99.90;;;;;;5093680;28;20038;-74
2021/12/07 07:00:21;;;;;;;10.98;2.05;;;6.00;99.90;;;;;;5093826;28;20012;-73
2021/12/07 07:02:47;;;;;;;10.15;2.20;;;6.00;99.90;;;;;;5094132;28;20539;-73
2021/12/07 07:05:13;;;;;;;15.20;1.88;;;5.90;99.90;;;;;;5095272;28;20031;-74
2021/12/07 07:07:40;;;;;;;9.80;1.70;;;5.90;99.90;;;;;;5094296;28;20093;-74
2021/12/07 07:10:08;;;;;;;9.95;2.28;;;5.90;99.90;;;;;;5095567;28;20024;-74
2021/12/07 07:12:34;;;;;;;10.70;2.00;;;5.90;99.90;;;;;;5093995;28;20119;-74
2021/12/07 07:15:00;;;;;;;10.60;3.08;;;5.90;99.90;;;;;;5095353;28;20104;-75
2021/12/07 07:17:26;;;;;;;10.73;2.00;;;5.90;99.90;;;;;;5096831;28;20361;-74
2021/12/07 07:19:51;;;;;;;9.48;2.28;;;5.90;99.90;;;;;;5104430;28;20031;-73
2021/12/07 07:22:17;;;;;;;10.60;2.58;;;5.90;99.90;;;;;;5095302;28;20034;-75
2021/12/07 07:24:45;;;;;;;12.25;2.42;;;5.80;99.90;;;;;;5095160;28;20040;-74
2021/12/07 07:27:10;;;;;;;12.10;2.20;;;5.80;99.90;;;;;;5095023;28;20115;-73
2021/12/07 07:29:36;;;;;;;11.90;2.28;;;5.80;99.90;;;;;;5095326;28;20063;-75
2021/12/07 07:32:02;;;;;;;11.27;2.33;;;5.80;99.90;;;;;;5095405;28;20016;-74
2021/12/07 07:34:28;;;;;;;11.38;2.97;;;5.70;99.90;;;;;;5092132;28;20024;-75
2021/12/07 07:36:57;;;;;;;10.75;2.10;;;5.70;99.90;;;;;;5093800;28;20429;-75
2021/12/07 07:39:22;;;;;;;10.95;2.53;;;5.70;99.90;;;;;;5094231;28;20035;-74
2021/12/07 07:41:48;;;;;;;10.30;2.03;;;5.70;99.90;;;;;;5093449;28;20383;-73
2021/12/07 07:44:14;;;;;;;15.98;3.67;;;5.60;99.90;;;;;;5092672;28;20020;-73
2021/12/07 07:46:40;;;;;;;13.43;2.63;;;5.60;99.90;;;;;;5094414;28;20027;-74
2021/12/07 07:49:05;;;;;;;14.00;2.33;;;5.60;99.90;;;;;;5093955;28;20028;-74
2021/12/07 07:51:32;;;;;;;15.38;2.47;;;5.60;99.90;;;;;;5094318;28;20363;-74
2021/12/07 07:53:59;;;;;;;5.80;2.10;;;5.60;99.90;;;;;;5090464;28;20136;-75
2021/12/07 07:56:26;;;;;;;8.93;2.50;;;5.60;99.90;;;;;;5094252;28;20633;-74
2021/12/07 07:58:51;;;;;;;10.23;2.60;;;5.60;99.90;;;;;;5092924;28;20135;-74
2021/12/07 08:01:17;;;;;;;11.45;2.85;;;5.70;99.90;;;;;;5093297;28;20123;-73
2021/12/07 08:03:43;;;;;;;7.90;2.20;;;5.80;99.90;;;;;;5094957;28;20384;-74
2021/12/07 08:06:08;;;;;;;9.80;2.20;;;5.90;99.90;;;;;;5094098;28;20463;-74
2021/12/07 08:08:34;;;;;;;12.68;2.50;;;6.10;99.90;;;;;;5094181;28;20511;-75
2021/12/07 08:11:01;;;;;;;9.90;3.42;;;6.20;99.90;;;;;;5093868;28;20032;-73
2021/12/07 08:13:26;;;;;;;11.90;2.40;;;6.20;99.90;;;;;;5092824;28;20115;-74
2021/12/07 08:15:52;;;;;;;17.25;3.63;;;6.20;99.90;;;;;;5094471;28;20104;-73
2021/12/07 08:18:18;;;;;;;5.30;2.20;;;6.20;99.90;;;;;;5094152;28;20069;-74
2021/12/07 08:20:44;;;;;;;7.75;2.03;;;6.20;99.90;;;;;;5094026;28;20020;-73
2021/12/07 08:23:10;;;;;;;9.40;2.50;;;6.20;99.90;;;;;;5091194;28;20024;-74
2021/12/07 08:25:40;;;;;;;12.27;2.92;;;6.20;99.90;;;;;;5093100;28;20093;-74
2021/12/07 08:28:12;;;;;;;12.23;2.60;;;6.20;99.90;;;;;;5094215;28;20035;-74
2021/12/07 08:30:38;;;;;;;14.45;2.75;;;6.20;99.90;;;;;;5094256;28;20031;-75
2021/12/07 08:33:04;;;;;;;12.75;3.67;;;6.20;99.90;;;;;;5094071;28;20487;-73
2021/12/07 08:35:30;;;;;;;18.85;3.20;;;6.20;99.90;;;;;;5093465;28;20031;-75
2021/12/07 08:37:56;;;;;;;12.55;2.03;;;6.20;99.90;;;;;;5092479;28;20032;-74
2021/12/07 08:40:25;;;;;;;9.20;2.13;;;6.20;99.90;;;;;;5093915;28;20054;-74
2021/12/07 08:42:52;;;;;;;11.30;2.15;;;6.30;99.90;;;;;;5093517;28;20032;-74
2021/12/07 08:45:20;;;;;;;7.40;2.22;;;6.40;99.90;;;;;;5093720;28;20068;-74
2021/12/07 08:47:46;;;;;;;9.80;1.80;;;6.50;99.90;;;;;;5093791;28;20103;-74
2021/12/07 08:50:21;;;;;;;12.63;2.15;;;6.70;99.90;;;;;;5093887;28;20073;-74
2021/12/07 08:52:49;;;;;;;7.88;2.20;;;6.80;99.90;;;;;;5093326;28;20099;-73
2021/12/07 09:00:30;;;;;;;7.78;2.33;;;7.10;99.90;;;;;;5094239;28;20409;-74
2021/12/07 09:02:56;;;;;;;10.27;2.97;;;7.10;99.90;;;;;;5093055;28;20143;-73
2021/12/07 09:05:23;;;;;;;10.52;2.78;;;7.20;99.90;;;;;;5093705;28;20224;-73
2021/12/07 09:07:50;;;;;;;11.43;2.42;;;7.20;99.90;;;;;;5092305;28;20028;-73
2021/12/07 09:10:16;;;;;;;10.43;2.75;;;7.20;99.90;;;;;;5092085;28;20387;-72
2021/12/07 09:12:43;;;;;;;15.65;2.90;;;7.30;99.90;;;;;;5092265;28;20025;-72
2021/12/07 09:15:09;;;;;;;10.90;2.60;;;7.20;99.90;;;;;;5093888;28;20025;-74
2021/12/07 09:17:35;;;;;;;12.68;2.85;;;7.10;99.90;;;;;;5092934;28;20039;-72
2021/12/07 09:20:10;;;;;;;13.00;2.53;;;7.00;99.90;;;;;;5093338;28;20035;-75
2021/12/07 09:22:36;;;;;;;12.95;2.70;;;6.90;99.90;;;;;;5093178;28;20448;-72
2021/12/07 09:25:01;;;;;;;11.77;2.67;;;6.80;99.90;;;;;;5091775;28;20486;-72
2021/12/07 09:27:27;;;;;;;11.95;2.58;;;6.60;99.90;;;;;;5092984;28;20020;-72
2021/12/07 09:29:53;;;;;;;12.18;3.63;;;6.60;99.90;;;;;;5091601;28;20422;-74
2021/12/07 09:32:19;;;;;;;9.20;2.38;;;6.50;99.90;;;;;;5092636;28;20032;-73
2021/12/07 09:34:45;;;;;;;15.88;2.70;;;6.50;99.90;;;;;;5092337;28;20125;-72
2021/12/07 09:37:11;;;;;;;12.25;4.07;;;6.40;99.90;;;;;;5093152;28;20033;-72
2021/12/07 09:39:36;;;;;;;4.93;1.90;;;6.40;99.90;;;;;;5092528;28;20031;-73
2021/12/07 09:42:02;;;;;;;16.58;3.30;;;6.40;99.90;;;;;;5072065;28;20103;-74
2021/12/07 09:44:28;;;;;;;11.77;2.50;;;6.40;99.90;;;;;;5092798;28;20058;-72
2021/12/07 09:46:54;;;;;;;9.07;2.80;;;6.40;99.90;;;;;;5092082;28;20059;-72
2021/12/07 09:49:20;;;;;;;9.13;3.42;;;6.50;99.90;;;;;;5092762;28;20086;-73
2021/12/07 09:51:45;;;;;;;11.70;3.28;;;6.50;99.90;;;;;;5092968;28;20070;-73
2021/12/07 09:54:11;;;;;;;16.05;2.80;;;6.50;99.90;;;;;;5092875;28;20392;-73
2021/12/07 09:56:38;;;;;;;11.02;3.38;;;6.60;99.90;;;;;;5072523;28;20120;-73
2021/12/07 09:59:07;;;;;;;13.57;3.17;;;6.90;99.90;;;;;;5087692;28;20040;-74
2021/12/07 10:01:33;;;;;;;11.20;2.55;;;7.40;99.90;;;;;;5092536;28;20107;-72
2021/12/07 10:03:58;;;;;;;12.18;2.83;;;7.60;99.90;;;;;;5090238;28;20108;-74
2021/12/07 10:06:24;;;;;;;12.10;3.20;;;7.80;99.90;;;;;;5092908;28;20024;-73
2021/12/07 10:08:50;;;;;;;9.57;3.53;;;7.90;99.90;;;;;;5091087;28;20114;-73
2021/12/07 10:11:17;;;;;;;8.38;2.95;;;7.80;99.90;;;;;;5092813;28;20157;-72
2021/12/07 10:13:45;;;;;;;8.10;2.65;;;7.70;99.90;;;;;;5092697;28;20020;-73
2021/12/07 10:16:14;;;;;;;10.20;2.60;;;7.70;99.90;;;;;;5092529;28;20031;-74
2021/12/07 10:18:42;;;;;;;9.45;3.20;;;7.60;99.90;;;;;;5096824;28;20040;-73
2021/12/07 10:21:18;;;;;;;6.72;1.95;;;7.70;99.90;;;;;;5113150;28;20028;-74
2021/12/07 10:23:54;;;;;;;11.35;2.30;;;7.90;99.90;;;;;;5114122;28;20517;-73
2021/12/07 10:26:22;;;;;;;9.70;2.53;;;8.10;99.90;;;;;;5116325;28;20027;-73
2021/12/07 10:28:54;;;;;;;8.27;2.40;;;8.20;99.90;;;;;;5098169;28;20041;-75
2021/12/07 10:31:24;;;;;;;10.80;4.05;;;8.20;99.90;;;;;;5096352;28;20028;-74
2021/12/07 10:34:00;;;;;;;11.30;2.40;;;8.20;99.90;;;;;;5094850;28;20028;-74
2021/12/07 10:36:28;;;;;;;12.57;2.45;;;8.20;99.90;;;;;;5078202;28;20024;-74
2021/12/07 10:39:08;;;;;;;13.00;2.50;;;8.30;99.90;;;;;;5096164;28;20036;-74
2021/12/07 10:41:45;;;;;;;12.02;2.50;;;8.40;99.90;;;;;;5095546;28;20032;-74
2021/12/07 10:44:39;;;;;;;14.25;2.78;;;8.60;99.90;;;;;;5095173;28;20032;-73
2021/12/07 10:47:16;;;;;;;10.80;2.60;;;8.90;99.90;;;;;;5092831;28;20114;-74
2021/12/07 10:49:51;;;;;;;9.88;2.30;;;9.20;99.90;;;;;;5096050;28;20024;-74
2021/12/07 10:52:28;;;;;;;9.88;2.63;;;9.40;99.90;;;;;;5095974;28;20024;-74
2021/12/07 10:55:13;;;;;;;7.88;2.20;;;9.50;99.90;;;;;;5095903;28;20115;-73
2021/12/07 10:57:53;;;;;;;6.55;2.20;;;9.50;99.90;;;;;;5093189;28;20099;-73
2021/12/07 11:00:21;;;;;;;8.50;2.38;;;9.50;99.90;;;;;;5095162;28;20024;-71
2021/12/07 11:03:04;;;;;;;6.78;2.33;;;9.40;99.90;;;;;;5093944;28;20043;-73
2021/12/07 11:05:37;;;;;;;11.27;2.70;;;9.50;99.90;;;;;;5094076;28;20020;-72
2021/12/07 11:08:05;;;;;;;8.85;2.25;;;9.50;99.90;;;;;;5095344;28;20023;-74
2021/12/07 11:10:40;;;;;;;9.98;1.73;;;9.60;99.90;;;;;;5094293;28;20050;-73
2021/12/07 11:13:16;;;;;;;10.27;2.30;;;9.60;99.90;;;;;;5095466;28;20024;-73
2021/12/07 11:15:51;;;;;;;8.43;1.85;;;9.60;99.90;;;;;;5095394;28;20020;-74
2021/12/07 11:18:21;;;;;;;15.00;2.75;;;9.60;99.90;;;;;;5094861;28;20036;-72
2021/12/07 11:20:46;;;;;;;5.22;1.52;;;9.60;99.90;;;;;;5093799;28;20023;-73
2021/12/07 11:23:29;;;;;;;8.55;1.80;;;9.70;99.90;;;;;;5093755;28;20020;-72
2021/12/07 11:31:27;;;;;;;14.70;2.70;;;9.70;99.90;;;;;;5091681;28;20035;-72
2021/12/07 11:34:03;;;;;;;10.95;2.00;;;9.80;99.90;;;;;;5093425;28;20536;-72
2021/12/07 11:36:32;;;;;;;14.90;2.42;;;9.90;99.90;;;;;;5092652;28;20020;-72
2021/12/07 11:38:59;;;;;;;17.48;2.53;;;10.10;99.90;;;;;;5091617;28;20031;-72
2021/12/07 11:41:31;;;;;;;8.77;2.15;;;10.20;99.90;;;;;;5093564;28;20028;-72
2021/12/07 11:44:02;;;;;;;10.40;2.28;;;10.30;99.90;;;;;;5092124;28;20103;-73
2021/12/07 11:46:31;;;;;;;8.88;1.70;;;10.20;99.90;;;;;;5092273;28;20031;-73
2021/12/07 11:49:10;;;;;;;11.88;2.13;;;10.10;99.90;;;;;;5093798;28;20490;-72
2021/12/07 11:51:37;;;;;;;19.75;2.97;;;10.00;99.90;;;;;;5094088;28;20478;-72
2021/12/07 11:54:03;;;;;;;8.70;2.58;;;9.80;99.90;;;;;;5093271;28;20028;-73
2021/12/07 11:56:30;;;;;;;10.25;2.20;;;9.70;99.90;;;;;;5093462;28;20020;-73
2021/12/07 11:58:56;;;;;;;10.45;2.35;;;9.60;99.90;;;;;;5093330;28;20047;-72
2021/12/07 12:01:23;;;;;;;9.65;1.95;;;9.40;99.90;;;;;;5094297;28;20024;-72
2021/12/07 12:03:49;;;;;;;9.15;2.05;;;9.10;99.90;;;;;;5094244;28;20098;-72
2021/12/07 12:06:15;;;;;;;10.73;2.00;;;9.00;99.90;;;;;;5094539;28;20061;-72
2021/12/07 12:08:41;;;;;;;13.85;3.38;;;8.90;99.90;;;;;;5094532;28;20032;-72
2021/12/07 12:11:24;;;;;;;8.20;2.05;;;8.90;99.90;;;;;;5089950;28;20016;-73
2021/12/07 12:14:04;;;;;;;9.82;2.40;;;8.80;99.90;;;;;;5086385;28;20050;-72
2021/12/07 12:16:51;;;;;;;15.52;2.45;;;8.70;99.90;;;;;;5093082;28;20020;-72
2021/12/07 12:19:32;;;;;;;9.55;2.60;;;8.70;99.90;;;;;;5072837;28;20060;-73
2021/12/07 12:22:14;;;;;;;11.27;3.40;;;8.60;99.90;;;;;;5090982;28;20027;-73
2021/12/07 12:24:48;;;;;;;14.18;3.22;;;8.50;99.90;;;;;;5094023;28;20028;-72
2021/12/07 12:27:17;;;;;;;8.48;2.67;;;8.30;99.90;;;;;;5093189;28;20028;-72
2021/12/07 12:29:45;;;;;;;12.43;2.97;;;8.30;99.90;;;;;;5093433;28;20086;-72
2021/12/07 12:32:11;;;;;;;12.18;3.15;;;8.30;99.90;;;;;;5092525;28;20020;-72
2021/12/07 12:34:47;;;;;;;13.25;3.17;;;8.30;99.90;;;;;;5092602;28;20028;-72
2021/12/07 12:37:20;;;;;;;15.65;3.38;;;8.20;99.90;;;;;;5088059;28;20028;-72
2021/12/07 12:39:53;;;;;;;11.40;2.83;;;8.10;99.90;;;;;;5090162;28;20476;-72
2021/12/07 12:42:49;;;;;;;15.90;3.25;;;7.90;99.90;;;;;;5093477;28;20024;-73
2021/12/07 12:45:28;;;;;;;18.85;3.85;;;7.80;99.90;;;;;;5077148;28;20034;-72
2021/12/07 12:48:06;;;;;;;14.82;4.25;;;7.70;99.90;;;;;;5091965;28;20065;-72
2021/12/07 12:50:43;;;;;;;17.90;3.90;;;7.60;99.90;;;;;;5093824;28;20036;-72
2021/12/07 12:53:20;;;;;;;15.52;3.30;;;7.60;99.90;;;;;;5090373;28;20024;-73
2021/12/07 12:55:57;;;;;;;18.60;3.97;;;7.60;99.90;;;;;;5092367;28;20467;-71
2021/12/07 12:58:29;;;;;;;19.17;4.28;;;7.60;99.90;;;;;;5093093;28;20138;-71
2021/12/07 13:01:22;;;;;;;19.10;4.47;;;7.60;99.90;;;;;;5093497;28;20024;-73
2021/12/07 13:04:12;;;;;;;18.90;3.58;;;7.60;99.90;;;;;;5093865;28;20040;-73
2021/12/07 13:06:52;;;;;;;18.85;3.83;;;7.60;99.90;;;;;;5093116;28;20031;-72
2021/12/07 13:09:17;;;;;;;16.73;4.32;;;7.60;99.90;;;;;;5090058;28;20092;-73
2021/12/07 13:11:59;;;;;;;19.55;3.97;;;7.60;99.90;;;;;;5092548;28;20092;-74
2021/12/07 13:14:25;;;;;;;18.27;4.57;;;7.60;99.90;;;;;;5093340;28;20032;-73
2021/12/07 13:16:54;;;;;;;20.73;5.13;;;7.70;99.90;;;;;;5092758;28;20035;-72
2021/12/07 13:19:20;;;;;;;24.05;5.93;;;7.80;99.90;;;;;;5095883;28;20028;-72
2021/12/07 13:21:48;;;;;;;23.05;5.45;;;7.80;99.90;;;;;;5092960;28;20025;-73
2021/12/07 13:24:20;;;;;;;19.25;4.72;;;7.70;99.90;;;;;;5092866;28;20680;-73
2021/12/07 13:26:52;;;;;;;24.23;4.95;;;7.70;99.90;;;;;;5090159;28;20357;-71
2021/12/07 13:29:18;;;;;;;;;;;7.70;99.90;;;;;;5093783;28;20035;-73
2021/12/07 13:31:48;;;;;;;18.98;5.07;;;7.70;99.90;;;;;;5074978;28;20379;-72
2021/12/07 13:34:16;;;;;;;18.73;5.55;;;7.60;99.90;;;;;;5091195;28;21637;-73
2021/12/07 13:36:42;;;;;;;14.45;4.30;;;7.60;99.90;;;;;;5089701;28;20052;-73
2021/12/07 13:39:18;;;;;;;17.27;4.97;;;7.60;99.90;;;;;;5092880;28;20082;-72
2021/12/07 13:42:06;;;;;;;14.40;3.97;;;7.60;99.90;;;;;;5093197;28;20039;-73
2021/12/07 13:44:33;;;;;;;17.45;4.47;;;7.60;99.90;;;;;;5093174;28;20450;-72
2021/12/07 13:47:03;;;;;;;15.57;3.92;;;7.50;99.90;;;;;;5091023;28;20032;-72
2021/12/07 13:49:31;;;;;;;12.90;4.15;;;7.50;99.90;;;;;;5092674;28;20038;-72
2021/12/07 13:51:57;;;;;;;13.45;4.20;;;7.40;99.90;;;;;;5093239;28;20052;-72
2021/12/07 13:54:23;;;;;;;14.57;4.20;;;7.40;99.90;;;;;;5092693;28;20052;-72
2021/12/07 13:56:51;;;;;;;15.02;3.97;;;7.30;99.90;;;;;;5092792;28;20070;-73
2021/12/07 13:59:21;;;;;;;11.75;4.05;;;7.30;99.90;;;;;;5095522;28;20036;-72
2021/12/07 14:01:53;;;;;;;14.02;4.45;;;7.30;99.90;;;;;;5076735;28;20021;-72
2021/12/07 14:04:19;;;;;;;;;;;7.20;99.90;;;;;;5077030;28;20024;-72
2021/12/07 14:06:48;;;;;;;12.82;3.75;;;7.10;99.90;;;;;;5076627;28;19904;-73
2021/12/07 14:09:17;;;;;;;15.90;3.90;;;7.10;99.90;;;;;;5058385;28;20357;-73
2021/12/07 14:11:43;;;;;;;10.90;2.88;;;7.00;99.90;;;;;;5095059;28;20078;-73
2021/12/07 14:14:14;;;;;;;15.80;4.38;;;7.00;99.90;;;;;;5095886;28;20066;-74
2021/12/07 14:16:41;;;;;;;14.48;3.35;;;6.90;99.90;;;;;;5093921;28;20024;-74
2021/12/07 14:19:07;;;;;;;13.50;2.95;;;7.00;99.90;;;;;;5088245;28;20036;-72
2021/12/07 14:21:33;;;;;;;11.13;3.67;;;6.90;99.90;;;;;;5095893;28;20028;-72
2021/12/07 14:24:08;;;;;;;12.88;3.17;;;6.90;99.90;;;;;;5094137;28;20479;-73
2021/12/07 14:26:36;;;;;;;9.00;2.63;;;6.90;99.90;;;;;;5095291;28;20028;-72
2021/12/07 14:29:23;;;;;;;9.43;3.15;;;6.90;99.90;;;;;;5094464;28;20107;-75
2021/12/07 14:31:56;;;;;;;7.00;2.83;;;6.80;99.90;;;;;;5076246;28;20132;-72
2021/12/07 14:34:26;;;;;;;14.52;3.53;;;6.80;99.90;;;;;;5065946;28;20024;-72
2021/12/07 14:36:59;;;;;;;16.85;4.57;;;6.70;99.90;;;;;;5095649;28;20020;-75
2021/12/07 14:39:34;;;;;;;13.90;3.70;;;6.70;99.90;;;;;;5095542;28;20036;-72
2021/12/07 14:42:17;;;;;;;11.55;3.22;;;6.70;99.90;;;;;;5096112;28;20024;-72
2021/12/07 14:45:03;;;;;;;16.85;3.75;;;6.70;99.90;;;;;;5095919;28;20031;-72
2021/12/07 14:47:28;;;;;;;15.32;3.85;;;6.60;99.90;;;;;;5095675;28;20401;-73
2021/12/07 14:49:57;;;;;;;10.00;3.42;;;6.60;99.90;;;;;;5095650;28;20060;-72